sensor_id;sensor_type;location;lat;lon;timestamp;temperature;humidity
21403;DHT22;10862;51.886;17.078;2022-10-22T00:00:03;10.80;99.90
21403;DHT22;10862;51.886;17.078;2022-10-22T00:02:29;10.80;99.90
21403;DHT22;10862;51.886;17.078;2022-10-22T00:04:55;10.80;99.90
21403;DHT22;10862;51.886;17.078;2022-10-22T00:07:21;10.80;99.90
21403;DHT22;10862;51.886;17.078;2022-10-22T00:09:46;10.80;99.90
21403;DHT22;10862;51.886;17.078;2022-10-22T00:12:13;10.80;99.90
21403;DHT22;10862;51.886;17.078;2022-10-22T00:14:39;10.80;99.90
21403;DHT22;10862;51.886;17.078;2022-10-22T00:17:04;10.90;99.90
21403;DHT22;10862;51.886;17.078;2022-10-22T00:19:30;10.90;99.90
21403;DHT22;10862;51.886;17.078;2022-10-22T00:21:55;10.80;99.90
21403;DHT22;10862;51.886;17.078;2022-10-22T00:24:22;10.90;99.90
21403;DHT22;10862;51.886;17.078;2022-10-22T00:26:48;10.80;99.90
21403;DHT22;10862;51.886;17.078;2022-10-22T00:29:14;10.80;99.90
21403;DHT22;10862;51.886;17.078;2022-10-22T00:31:39;10.80;99.90
21403;DHT22;10862;51.886;17.078;2022-10-22T00:34:05;10.80;99.90
21403;DHT22;10862;51.886;17.078;2022-10-22T00:36:30;10.90;99.90
21403;DHT22;10862;51.886;17.078;2022-10-22T00:38:56;10.80;99.90
21403;DHT22;10862;51.886;17.078;2022-10-22T00:41:21;10.80;99.90
21403;DHT22;10862;51.886;17.078;2022-10-22T00:43:54;10.80;99.90
21403;DHT22;10862;51.886;17.078;2022-10-22T00:46:20;10.90;99.90
21403;DHT22;10862;51.886;17.078;2022-10-22T00:48:45;10.80;99.90
21403;DHT22;10862;51.886;17.078;2022-10-22T00:51:11;10.90;99.90
21403;DHT22;10862;51.886;17.078;2022-10-22T00:53:38;10.90;99.90
21403;DHT22;10862;51.886;17.078;2022-10-22T00:56:04;10.90;99.90
21403;DHT22;10862;51.886;17.078;2022-10-22T00:58:30;10.90;99.90
21403;DHT22;10862;51.886;17.078;2022-10-22T01:00:56;10.90;99.90
21403;DHT22;10862;51.886;17.078;2022-10-22T01:03:22;10.80;99.90
21403;DHT22;10862;51.886;17.078;2022-10-22T01:05:51;10.80;99.90
21403;DHT22;10862;51.886;17.078;2022-10-22T01:11:11;10.80;99.90
21403;DHT22;10862;51.886;17.078;2022-10-22T01:19:00;10.90;99.90
21403;DHT22;10862;51.886;17.078;2022-10-22T01:31:35;10.90;99.90
21403;DHT22;10862;51.886;17.078;2022-10-22T01:34:02;10.90;99.90
21403;DHT22;10862;51.886;17.078;2022-10-22T01:36:31;10.80;99.90
21403;DHT22;10862;51.886;17.078;2022-10-22T01:38:58;10.80;99.90
21403;DHT22;10862;51.886;17.078;2022-10-22T01:41:26;10.80;99.90
21403;DHT22;10862;51.886;17.078;2022-10-22T01:43:51;10.80;99.90
21403;DHT22;10862;51.886;17.078;2022-10-22T01:46:21;10.90;99.90
21403;DHT22;10862;51.886;17.078;2022-10-22T01:48:56;10.90;99.90
21403;DHT22;10862;51.886;17.078;2022-10-22T01:54:10;10.90;99.90
21403;DHT22;10862;51.886;17.078;2022-10-22T01:59:15;10.90;99.90
21403;DHT22;10862;51.886;17.078;2022-10-22T02:04:15;10.90;99.90
21403;DHT22;10862;51.886;17.078;2022-10-22T02:06:42;10.90;99.90
21403;DHT22;10862;51.886;17.078;2022-10-22T02:09:09;10.90;99.90
21403;DHT22;10862;51.886;17.078;2022-10-22T02:11:35;10.90;99.90
21403;DHT22;10862;51.886;17.078;2022-10-22T02:14:02;10.90;99.90
21403;DHT22;10862;51.886;17.078;2022-10-22T02:16:33;10.90;99.90
21403;DHT22;10862;51.886;17.078;2022-10-22T02:19:00;10.80;99.90
21403;DHT22;10862;51.886;17.078;2022-10-22T02:21:26;10.90;99.90
21403;DHT22;10862;51.886;17.078;2022-10-22T02:23:52;10.80;99.90
21403;DHT22;10862;51.886;17.078;2022-10-22T02:26:19;10.80;99.90
21403;DHT22;10862;51.886;17.078;2022-10-22T02:28:57;10.80;99.90
21403;DHT22;10862;51.886;17.078;2022-10-22T02:31:25;10.80;99.90
21403;DHT22;10862;51.886;17.078;2022-10-22T02:33:52;10.80;99.90
21403;DHT22;10862;51.886;17.078;2022-10-22T02:36:19;10.80;99.90
21403;DHT22;10862;51.886;17.078;2022-10-22T02:38:44;10.80;99.90
21403;DHT22;10862;51.886;17.078;2022-10-22T02:41:11;10.90;99.90
21403;DHT22;10862;51.886;17.078;2022-10-22T02:43:41;10.90;99.90
21403;DHT22;10862;51.886;17.078;2022-10-22T02:46:07;10.90;99.90
21403;DHT22;10862;51.886;17.078;2022-10-22T02:48:33;10.90;99.90
21403;DHT22;10862;51.886;17.078;2022-10-22T02:50:58;10.90;99.90
21403;DHT22;10862;51.886;17.078;2022-10-22T02:53:24;10.90;99.90
21403;DHT22;10862;51.886;17.078;2022-10-22T02:55:49;11.00;99.90
21403;DHT22;10862;51.886;17.078;2022-10-22T02:58:15;11.00;99.90
21403;DHT22;10862;51.886;17.078;2022-10-22T03:00:40;11.00;99.90
21403;DHT22;10862;51.886;17.078;2022-10-22T03:03:06;11.00;99.90
21403;DHT22;10862;51.886;17.078;2022-10-22T03:05:31;11.00;99.90
21403;DHT22;10862;51.886;17.078;2022-10-22T03:07:57;11.00;99.90
21403;DHT22;10862;51.886;17.078;2022-10-22T03:10:22;11.10;99.90
21403;DHT22;10862;51.886;17.078;2022-10-22T03:12:48;11.10;99.90
21403;DHT22;10862;51.886;17.078;2022-10-22T03:15:13;11.10;99.90
21403;DHT22;10862;51.886;17.078;2022-10-22T03:17:39;11.10;99.90
21403;DHT22;10862;51.886;17.078;2022-10-22T03:20:04;11.10;99.90
21403;DHT22;10862;51.886;17.078;2022-10-22T03:22:31;11.10;99.90
21403;DHT22;10862;51.886;17.078;2022-10-22T03:24:57;11.10;99.90
21403;DHT22;10862;51.886;17.078;2022-10-22T03:27:23;11.10;99.90
21403;DHT22;10862;51.886;17.078;2022-10-22T03:29:50;11.10;99.90
21403;DHT22;10862;51.886;17.078;2022-10-22T03:32:16;11.10;99.90
21403;DHT22;10862;51.886;17.078;2022-10-22T03:34:41;11.10;99.90
21403;DHT22;10862;51.886;17.078;2022-10-22T03:37:07;11.00;99.90
21403;DHT22;10862;51.886;17.078;2022-10-22T03:39:33;11.10;99.90
21403;DHT22;10862;51.886;17.078;2022-10-22T03:41:59;11.00;99.90
21403;DHT22;10862;51.886;17.078;2022-10-22T03:44:25;11.10;99.90
21403;DHT22;10862;51.886;17.078;2022-10-22T03:46:51;11.00;99.90
21403;DHT22;10862;51.886;17.078;2022-10-22T03:49:16;11.10;99.90
21403;DHT22;10862;51.886;17.078;2022-10-22T03:51:42;11.10;99.90
21403;DHT22;10862;51.886;17.078;2022-10-22T03:54:07;11.10;99.90
21403;DHT22;10862;51.886;17.078;2022-10-22T03:56:33;11.10;99.90
21403;DHT22;10862;51.886;17.078;2022-10-22T03:58:59;11.00;99.90
21403;DHT22;10862;51.886;17.078;2022-10-22T04:01:25;11.10;99.90
21403;DHT22;10862;51.886;17.078;2022-10-22T04:03:51;11.00;99.90
21403;DHT22;10862;51.886;17.078;2022-10-22T04:06:17;11.10;99.90
21403;DHT22;10862;51.886;17.078;2022-10-22T04:08:42;11.10;99.90
21403;DHT22;10862;51.886;17.078;2022-10-22T04:11:09;11.10;99.90
21403;DHT22;10862;51.886;17.078;2022-10-22T04:13:34;11.10;99.90
21403;DHT22;10862;51.886;17.078;2022-10-22T04:16:10;11.10;99.90
21403;DHT22;10862;51.886;17.078;2022-10-22T04:18:36;11.00;99.90
21403;DHT22;10862;51.886;17.078;2022-10-22T04:21:02;11.00;99.90
21403;DHT22;10862;51.886;17.078;2022-10-22T04:23:28;11.00;99.90
21403;DHT22;10862;51.886;17.078;2022-10-22T04:26:00;11.00;99.90
21403;DHT22;10862;51.886;17.078;2022-10-22T04:28:26;11.00;99.90
21403;DHT22;10862;51.886;17.078;2022-10-22T04:30:52;11.00;99.90
21403;DHT22;10862;51.886;17.078;2022-10-22T04:33:18;10.90;99.90
21403;DHT22;10862;51.886;17.078;2022-10-22T04:35:43;11.00;99.90
21403;DHT22;10862;51.886;17.078;2022-10-22T04:38:09;11.00;99.90
21403;DHT22;10862;51.886;17.078;2022-10-22T04:40:34;11.00;99.90
21403;DHT22;10862;51.886;17.078;2022-10-22T04:43:00;11.10;99.90
21403;DHT22;10862;51.886;17.078;2022-10-22T04:45:25;11.00;99.90
21403;DHT22;10862;51.886;17.078;2022-10-22T04:47:51;11.00;99.90
21403;DHT22;10862;51.886;17.078;2022-10-22T04:50:16;11.10;99.90
21403;DHT22;10862;51.886;17.078;2022-10-22T04:52:42;11.10;99.90
21403;DHT22;10862;51.886;17.078;2022-10-22T04:55:07;11.10;99.90
21403;DHT22;10862;51.886;17.078;2022-10-22T04:57:33;11.10;99.90
21403;DHT22;10862;51.886;17.078;2022-10-22T04:59:58;11.10;99.90
21403;DHT22;10862;51.886;17.078;2022-10-22T05:02:24;11.10;99.90
21403;DHT22;10862;51.886;17.078;2022-10-22T05:04:49;11.10;99.90
21403;DHT22;10862;51.886;17.078;2022-10-22T05:07:15;11.10;99.90
21403;DHT22;10862;51.886;17.078;2022-10-22T05:09:40;11.10;99.90
21403;DHT22;10862;51.886;17.078;2022-10-22T05:12:06;11.20;99.90
21403;DHT22;10862;51.886;17.078;2022-10-22T05:14:32;11.10;99.90
21403;DHT22;10862;51.886;17.078;2022-10-22T05:16:57;11.10;99.90
21403;DHT22;10862;51.886;17.078;2022-10-22T05:19:24;11.10;99.90
21403;DHT22;10862;51.886;17.078;2022-10-22T05:21:50;11.10;99.90
21403;DHT22;10862;51.886;17.078;2022-10-22T05:24:16;11.20;99.90
21403;DHT22;10862;51.886;17.078;2022-10-22T05:26:42;11.20;99.90
21403;DHT22;10862;51.886;17.078;2022-10-22T05:29:07;11.20;99.90
21403;DHT22;10862;51.886;17.078;2022-10-22T05:31:33;11.20;99.90
21403;DHT22;10862;51.886;17.078;2022-10-22T05:33:58;11.20;99.90
21403;DHT22;10862;51.886;17.078;2022-10-22T05:36:24;11.10;99.90
21403;DHT22;10862;51.886;17.078;2022-10-22T05:38:50;11.20;99.90
21403;DHT22;10862;51.886;17.078;2022-10-22T05:41:16;11.20;99.90
21403;DHT22;10862;51.886;17.078;2022-10-22T05:43:42;11.20;99.90
21403;DHT22;10862;51.886;17.078;2022-10-22T05:46:09;11.20;99.90
21403;DHT22;10862;51.886;17.078;2022-10-22T05:48:35;11.30;99.90
21403;DHT22;10862;51.886;17.078;2022-10-22T05:51:04;11.20;99.90
21403;DHT22;10862;51.886;17.078;2022-10-22T05:53:31;11.30;99.90
21403;DHT22;10862;51.886;17.078;2022-10-22T05:55:58;11.30;99.90
21403;DHT22;10862;51.886;17.078;2022-10-22T05:58:24;11.20;99.90
21403;DHT22;10862;51.886;17.078;2022-10-22T06:00:49;11.30;99.90
21403;DHT22;10862;51.886;17.078;2022-10-22T06:03:15;11.20;99.90
21403;DHT22;10862;51.886;17.078;2022-10-22T06:05:40;11.20;99.90
21403;DHT22;10862;51.886;17.078;2022-10-22T06:08:07;11.30;99.90
21403;DHT22;10862;51.886;17.078;2022-10-22T06:10:34;11.30;99.90
21403;DHT22;10862;51.886;17.078;2022-10-22T06:12:59;11.30;99.90
21403;DHT22;10862;51.886;17.078;2022-10-22T06:15:27;11.30;99.90
21403;DHT22;10862;51.886;17.078;2022-10-22T06:17:53;11.30;99.90
21403;DHT22;10862;51.886;17.078;2022-10-22T06:20:18;11.30;99.90
21403;DHT22;10862;51.886;17.078;2022-10-22T06:22:44;11.30;99.90
21403;DHT22;10862;51.886;17.078;2022-10-22T06:25:09;11.30;99.90
21403;DHT22;10862;51.886;17.078;2022-10-22T06:27:35;11.30;99.90
21403;DHT22;10862;51.886;17.078;2022-10-22T06:30:00;11.30;99.90
21403;DHT22;10862;51.886;17.078;2022-10-22T06:32:26;11.40;99.90
21403;DHT22;10862;51.886;17.078;2022-10-22T06:34:51;11.40;99.90
21403;DHT22;10862;51.886;17.078;2022-10-22T06:37:17;11.40;99.90
21403;DHT22;10862;51.886;17.078;2022-10-22T06:39:42;11.40;99.90
21403;DHT22;10862;51.886;17.078;2022-10-22T06:42:08;11.40;99.90
21403;DHT22;10862;51.886;17.078;2022-10-22T06:44:33;11.40;99.90
21403;DHT22;10862;51.886;17.078;2022-10-22T06:46:59;11.40;99.90
21403;DHT22;10862;51.886;17.078;2022-10-22T06:49:24;11.50;99.90
21403;DHT22;10862;51.886;17.078;2022-10-22T06:51:53;11.40;99.90
21403;DHT22;10862;51.886;17.078;2022-10-22T06:54:19;11.50;99.90
21403;DHT22;10862;51.886;17.078;2022-10-22T06:56:44;11.50;99.90
21403;DHT22;10862;51.886;17.078;2022-10-22T06:59:10;11.50;99.90
21403;DHT22;10862;51.886;17.078;2022-10-22T07:01:36;11.50;99.90
21403;DHT22;10862;51.886;17.078;2022-10-22T07:04:02;11.50;99.90
21403;DHT22;10862;51.886;17.078;2022-10-22T07:06:28;11.50;99.90
21403;DHT22;10862;51.886;17.078;2022-10-22T07:08:54;11.60;99.90
21403;DHT22;10862;51.886;17.078;2022-10-22T07:11:27;11.50;99.90
21403;DHT22;10862;51.886;17.078;2022-10-22T07:13:53;11.60;99.90
21403;DHT22;10862;51.886;17.078;2022-10-22T07:16:19;11.70;99.90
21403;DHT22;10862;51.886;17.078;2022-10-22T07:18:45;11.70;99.90
21403;DHT22;10862;51.886;17.078;2022-10-22T07:21:11;11.70;99.90
21403;DHT22;10862;51.886;17.078;2022-10-22T07:23:37;11.70;99.90
21403;DHT22;10862;51.886;17.078;2022-10-22T07:26:03;11.80;99.90
21403;DHT22;10862;51.886;17.078;2022-10-22T07:28:32;11.80;99.90
21403;DHT22;10862;51.886;17.078;2022-10-22T07:30:58;11.90;99.90
21403;DHT22;10862;51.886;17.078;2022-10-22T07:33:23;11.90;99.90
21403;DHT22;10862;51.886;17.078;2022-10-22T07:35:49;11.90;99.90
21403;DHT22;10862;51.886;17.078;2022-10-22T07:38:14;12.00;99.90
21403;DHT22;10862;51.886;17.078;2022-10-22T07:40:40;12.00;99.90
21403;DHT22;10862;51.886;17.078;2022-10-22T07:43:05;12.10;99.90
21403;DHT22;10862;51.886;17.078;2022-10-22T07:45:31;12.00;99.90
21403;DHT22;10862;51.886;17.078;2022-10-22T07:47:57;12.10;99.90
21403;DHT22;10862;51.886;17.078;2022-10-22T07:50:24;12.10;99.90
21403;DHT22;10862;51.886;17.078;2022-10-22T07:52:50;12.10;99.90
21403;DHT22;10862;51.886;17.078;2022-10-22T07:55:15;12.10;99.90
21403;DHT22;10862;51.886;17.078;2022-10-22T07:57:41;12.20;99.90
21403;DHT22;10862;51.886;17.078;2022-10-22T08:00:07;12.30;99.90
21403;DHT22;10862;51.886;17.078;2022-10-22T08:02:33;12.20;99.90
21403;DHT22;10862;51.886;17.078;2022-10-22T08:04:59;12.20;99.90
21403;DHT22;10862;51.886;17.078;2022-10-22T08:07:25;12.30;99.90
21403;DHT22;10862;51.886;17.078;2022-10-22T08:09:50;12.30;99.90
21403;DHT22;10862;51.886;17.078;2022-10-22T08:12:16;12.40;99.90
21403;DHT22;10862;51.886;17.078;2022-10-22T08:14:41;12.30;99.90
21403;DHT22;10862;51.886;17.078;2022-10-22T08:17:07;12.50;99.90
21403;DHT22;10862;51.886;17.078;2022-10-22T08:19:32;12.50;99.90
21403;DHT22;10862;51.886;17.078;2022-10-22T08:21:59;12.50;99.90
21403;DHT22;10862;51.886;17.078;2022-10-22T08:24:25;12.50;99.90
21403;DHT22;10862;51.886;17.078;2022-10-22T08:26:51;12.60;99.90
21403;DHT22;10862;51.886;17.078;2022-10-22T08:29:18;12.60;99.90
21403;DHT22;10862;51.886;17.078;2022-10-22T08:31:45;12.50;99.90
21403;DHT22;10862;51.886;17.078;2022-10-22T08:34:11;12.60;99.90
21403;DHT22;10862;51.886;17.078;2022-10-22T08:36:36;12.60;99.90
21403;DHT22;10862;51.886;17.078;2022-10-22T08:39:02;12.70;99.90
21403;DHT22;10862;51.886;17.078;2022-10-22T08:41:27;12.70;99.90
21403;DHT22;10862;51.886;17.078;2022-10-22T08:48:54;12.70;99.90
21403;DHT22;10862;51.886;17.078;2022-10-22T08:51:23;12.80;99.90
21403;DHT22;10862;51.886;17.078;2022-10-22T08:56:34;12.90;99.90
21403;DHT22;10862;51.886;17.078;2022-10-22T09:01:38;13.00;99.90
21403;DHT22;10862;51.886;17.078;2022-10-22T09:04:09;13.10;99.90
21403;DHT22;10862;51.886;17.078;2022-10-22T09:06:39;13.10;99.90
21403;DHT22;10862;51.886;17.078;2022-10-22T09:09:09;13.20;99.90
21403;DHT22;10862;51.886;17.078;2022-10-22T09:11:37;13.20;99.90
21403;DHT22;10862;51.886;17.078;2022-10-22T09:14:03;13.20;99.90
21403;DHT22;10862;51.886;17.078;2022-10-22T09:16:32;13.20;99.90
21403;DHT22;10862;51.886;17.078;2022-10-22T09:21:40;13.40;99.90
21403;DHT22;10862;51.886;17.078;2022-10-22T09:26:46;13.40;99.90
21403;DHT22;10862;51.886;17.078;2022-10-22T09:29:18;13.50;99.90
21403;DHT22;10862;51.886;17.078;2022-10-22T09:31:47;13.50;99.90
21403;DHT22;10862;51.886;17.078;2022-10-22T09:34:14;13.50;99.90
21403;DHT22;10862;51.886;17.078;2022-10-22T09:36:39;13.50;99.90
21403;DHT22;10862;51.886;17.078;2022-10-22T09:39:10;13.60;99.90
21403;DHT22;10862;51.886;17.078;2022-10-22T09:41:45;13.70;99.90
21403;DHT22;10862;51.886;17.078;2022-10-22T09:44:11;13.70;99.90
21403;DHT22;10862;51.886;17.078;2022-10-22T09:46:37;13.70;99.90
21403;DHT22;10862;51.886;17.078;2022-10-22T09:49:05;13.60;99.90
21403;DHT22;10862;51.886;17.078;2022-10-22T09:51:55;13.60;99.90
21403;DHT22;10862;51.886;17.078;2022-10-22T09:54:24;13.60;99.90
21403;DHT22;10862;51.886;17.078;2022-10-22T09:56:56;13.60;99.90
21403;DHT22;10862;51.886;17.078;2022-10-22T09:59:26;13.70;99.90
21403;DHT22;10862;51.886;17.078;2022-10-22T10:01:56;13.70;99.90
21403;DHT22;10862;51.886;17.078;2022-10-22T10:04:21;13.70;99.90
21403;DHT22;10862;51.886;17.078;2022-10-22T10:06:51;13.70;99.90
21403;DHT22;10862;51.886;17.078;2022-10-22T10:09:19;13.80;99.90
21403;DHT22;10862;51.886;17.078;2022-10-22T10:11:51;13.70;99.90
21403;DHT22;10862;51.886;17.078;2022-10-22T10:24:11;13.60;99.90
21403;DHT22;10862;51.886;17.078;2022-10-22T10:29:17;13.50;99.90
21403;DHT22;10862;51.886;17.078;2022-10-22T10:44:52;13.40;99.90
21403;DHT22;10862;51.886;17.078;2022-10-22T10:49:45;13.50;99.90
21403;DHT22;10862;51.886;17.078;2022-10-22T10:52:19;13.50;99.90
21403;DHT22;10862;51.886;17.078;2022-10-22T10:55:10;13.50;99.90
21403;DHT22;10862;51.886;17.078;2022-10-22T11:05:25;13.60;99.90
21403;DHT22;10862;51.886;17.078;2022-10-22T11:12:46;13.50;99.90
21403;DHT22;10862;51.886;17.078;2022-10-22T11:15:26;13.50;99.90
21403;DHT22;10862;51.886;17.078;2022-10-22T11:17:53;13.60;99.90
21403;DHT22;10862;51.886;17.078;2022-10-22T11:20:21;13.60;99.90
21403;DHT22;10862;51.886;17.078;2022-10-22T11:22:54;13.70;99.90
21403;DHT22;10862;51.886;17.078;2022-10-22T11:25:22;13.70;99.90
21403;DHT22;10862;51.886;17.078;2022-10-22T11:27:59;13.70;99.90
21403;DHT22;10862;51.886;17.078;2022-10-22T11:30:27;13.60;99.90
21403;DHT22;10862;51.886;17.078;2022-10-22T11:32:55;13.60;99.90
21403;DHT22;10862;51.886;17.078;2022-10-22T11:35:29;13.60;99.90
21403;DHT22;10862;51.886;17.078;2022-10-22T11:37:56;13.60;99.90
21403;DHT22;10862;51.886;17.078;2022-10-22T11:42:55;13.50;99.90
21403;DHT22;10862;51.886;17.078;2022-10-22T11:52:58;13.30;99.90
21403;DHT22;10862;51.886;17.078;2022-10-22T11:57:58;13.30;99.90
21403;DHT22;10862;51.886;17.078;2022-10-22T12:00:34;13.20;99.90
21403;DHT22;10862;51.886;17.078;2022-10-22T12:03:14;13.20;99.90
21403;DHT22;10862;51.886;17.078;2022-10-22T12:05:40;13.20;99.90
21403;DHT22;10862;51.886;17.078;2022-10-22T12:08:17;13.10;99.90
21403;DHT22;10862;51.886;17.078;2022-10-22T12:10:48;13.10;99.90
21403;DHT22;10862;51.886;17.078;2022-10-22T12:13:22;13.10;99.90
21403;DHT22;10862;51.886;17.078;2022-10-22T12:15:50;13.10;99.90
21403;DHT22;10862;51.886;17.078;2022-10-22T12:18:16;13.10;99.90
21403;DHT22;10862;51.886;17.078;2022-10-22T12:20:41;13.10;99.90
21403;DHT22;10862;51.886;17.078;2022-10-22T12:23:10;13.00;99.90
21403;DHT22;10862;51.886;17.078;2022-10-22T12:25:36;13.00;99.90
21403;DHT22;10862;51.886;17.078;2022-10-22T12:28:02;13.00;99.90
21403;DHT22;10862;51.886;17.078;2022-10-22T12:30:30;13.00;99.90
21403;DHT22;10862;51.886;17.078;2022-10-22T12:32:56;13.00;99.90
21403;DHT22;10862;51.886;17.078;2022-10-22T12:35:23;13.00;99.90
21403;DHT22;10862;51.886;17.078;2022-10-22T12:37:57;13.00;99.90
21403;DHT22;10862;51.886;17.078;2022-10-22T12:40:26;12.90;99.90
21403;DHT22;10862;51.886;17.078;2022-10-22T12:42:56;12.90;99.90
21403;DHT22;10862;51.886;17.078;2022-10-22T12:45:23;12.90;99.90
21403;DHT22;10862;51.886;17.078;2022-10-22T12:47:50;12.90;99.90
21403;DHT22;10862;51.886;17.078;2022-10-22T12:50:17;12.90;99.90
21403;DHT22;10862;51.886;17.078;2022-10-22T12:52:43;12.90;99.90
21403;DHT22;10862;51.886;17.078;2022-10-22T12:55:14;12.90;99.90
21403;DHT22;10862;51.886;17.078;2022-10-22T12:57:39;12.90;99.90
21403;DHT22;10862;51.886;17.078;2022-10-22T13:00:17;12.80;99.90
21403;DHT22;10862;51.886;17.078;2022-10-22T13:02:43;12.80;99.90
21403;DHT22;10862;51.886;17.078;2022-10-22T13:07:38;12.80;99.90
21403;DHT22;10862;51.886;17.078;2022-10-22T13:10:25;12.80;99.90
21403;DHT22;10862;51.886;17.078;2022-10-22T13:12:55;12.80;99.90
21403;DHT22;10862;51.886;17.078;2022-10-22T13:18:12;12.80;99.90
21403;DHT22;10862;51.886;17.078;2022-10-22T13:20:50;12.80;99.90
21403;DHT22;10862;51.886;17.078;2022-10-22T13:23:17;12.80;99.90
21403;DHT22;10862;51.886;17.078;2022-10-22T13:25:44;12.80;99.90
21403;DHT22;10862;51.886;17.078;2022-10-22T13:28:20;12.80;99.90
21403;DHT22;10862;51.886;17.078;2022-10-22T13:30:53;12.80;99.90
21403;DHT22;10862;51.886;17.078;2022-10-22T13:35:45;12.80;99.90
21403;DHT22;10862;51.886;17.078;2022-10-22T13:38:14;12.80;99.90
21403;DHT22;10862;51.886;17.078;2022-10-22T13:40:42;12.80;99.90
21403;DHT22;10862;51.886;17.078;2022-10-22T13:43:08;12.80;99.90
21403;DHT22;10862;51.886;17.078;2022-10-22T13:45:33;12.80;99.90
21403;DHT22;10862;51.886;17.078;2022-10-22T13:47:59;12.80;99.90
21403;DHT22;10862;51.886;17.078;2022-10-22T13:50:24;12.80;99.90
21403;DHT22;10862;51.886;17.078;2022-10-22T13:52:53;12.90;99.90
21403;DHT22;10862;51.886;17.078;2022-10-22T13:57:45;12.80;99.90
21403;DHT22;10862;51.886;17.078;2022-10-22T14:00:14;12.80;99.90
21403;DHT22;10862;51.886;17.078;2022-10-22T14:02:39;12.90;99.90
21403;DHT22;10862;51.886;17.078;2022-10-22T14:05:05;12.80;99.90
21403;DHT22;10862;51.886;17.078;2022-10-22T14:07:34;12.80;99.90
21403;DHT22;10862;51.886;17.078;2022-10-22T14:10:00;12.80;99.90
21403;DHT22;10862;51.886;17.078;2022-10-22T14:12:25;12.80;99.90
21403;DHT22;10862;51.886;17.078;2022-10-22T14:14:52;12.80;99.90
21403;DHT22;10862;51.886;17.078;2022-10-22T14:17:18;12.90;99.90
21403;DHT22;10862;51.886;17.078;2022-10-22T14:19:44;12.90;99.90
21403;DHT22;10862;51.886;17.078;2022-10-22T14:22:20;12.80;99.90
21403;DHT22;10862;51.886;17.078;2022-10-22T14:24:45;12.80;99.90
21403;DHT22;10862;51.886;17.078;2022-10-22T14:27:12;12.80;99.90
21403;DHT22;10862;51.886;17.078;2022-10-22T14:29:38;12.80;99.90
21403;DHT22;10862;51.886;17.078;2022-10-22T14:32:05;12.90;99.90
21403;DHT22;10862;51.886;17.078;2022-10-22T14:34:31;12.80;99.90
21403;DHT22;10862;51.886;17.078;2022-10-22T14:36:56;12.80;99.90
21403;DHT22;10862;51.886;17.078;2022-10-22T14:39:22;12.90;99.90
21403;DHT22;10862;51.886;17.078;2022-10-22T14:41:47;12.80;99.90
21403;DHT22;10862;51.886;17.078;2022-10-22T14:44:13;12.80;99.90
21403;DHT22;10862;51.886;17.078;2022-10-22T14:46:39;12.80;99.90
21403;DHT22;10862;51.886;17.078;2022-10-22T14:49:06;12.80;99.90
21403;DHT22;10862;51.886;17.078;2022-10-22T14:51:32;12.80;99.90
21403;DHT22;10862;51.886;17.078;2022-10-22T14:53:57;12.80;99.90
21403;DHT22;10862;51.886;17.078;2022-10-22T14:56:23;12.80;99.90
21403;DHT22;10862;51.886;17.078;2022-10-22T14:58:48;12.80;99.90
21403;DHT22;10862;51.886;17.078;2022-10-22T15:01:14;12.80;99.90
21403;DHT22;10862;51.886;17.078;2022-10-22T15:03:40;12.80;99.90
21403;DHT22;10862;51.886;17.078;2022-10-22T15:06:05;12.80;99.90
21403;DHT22;10862;51.886;17.078;2022-10-22T15:08:31;12.80;99.90
21403;DHT22;10862;51.886;17.078;2022-10-22T15:11:04;12.80;99.90
21403;DHT22;10862;51.886;17.078;2022-10-22T15:13:30;12.90;99.90
21403;DHT22;10862;51.886;17.078;2022-10-22T15:15:56;12.80;99.90
21403;DHT22;10862;51.886;17.078;2022-10-22T15:18:22;12.80;99.90
21403;DHT22;10862;51.886;17.078;2022-10-22T15:20:54;12.90;99.90
21403;DHT22;10862;51.886;17.078;2022-10-22T15:23:20;12.90;99.90
21403;DHT22;10862;51.886;17.078;2022-10-22T15:25:45;12.80;99.90
21403;DHT22;10862;51.886;17.078;2022-10-22T15:28:11;12.90;99.90
21403;DHT22;10862;51.886;17.078;2022-10-22T15:30:36;12.90;99.90
21403;DHT22;10862;51.886;17.078;2022-10-22T15:33:02;12.90;99.90
21403;DHT22;10862;51.886;17.078;2022-10-22T15:35:27;12.90;99.90
21403;DHT22;10862;51.886;17.078;2022-10-22T15:37:53;12.90;99.90
21403;DHT22;10862;51.886;17.078;2022-10-22T15:40:18;12.90;99.90
21403;DHT22;10862;51.886;17.078;2022-10-22T15:42:44;12.90;99.90
21403;DHT22;10862;51.886;17.078;2022-10-22T15:45:10;12.90;99.90
21403;DHT22;10862;51.886;17.078;2022-10-22T15:47:36;13.00;99.90
21403;DHT22;10862;51.886;17.078;2022-10-22T15:50:02;13.00;99.90
21403;DHT22;10862;51.886;17.078;2022-10-22T15:52:28;13.00;99.90
21403;DHT22;10862;51.886;17.078;2022-10-22T15:54:53;13.00;99.90
21403;DHT22;10862;51.886;17.078;2022-10-22T15:57:19;13.00;99.90
21403;DHT22;10862;51.886;17.078;2022-10-22T15:59:44;13.00;99.90
21403;DHT22;10862;51.886;17.078;2022-10-22T16:02:11;13.10;99.90
21403;DHT22;10862;51.886;17.078;2022-10-22T16:04:37;13.10;99.90
21403;DHT22;10862;51.886;17.078;2022-10-22T16:07:02;13.10;99.90
21403;DHT22;10862;51.886;17.078;2022-10-22T16:09:28;13.10;99.90
21403;DHT22;10862;51.886;17.078;2022-10-22T16:11:54;13.10;99.90
21403;DHT22;10862;51.886;17.078;2022-10-22T16:14:20;13.10;99.90
21403;DHT22;10862;51.886;17.078;2022-10-22T16:16:46;13.10;99.90
21403;DHT22;10862;51.886;17.078;2022-10-22T16:19:13;13.10;99.90
21403;DHT22;10862;51.886;17.078;2022-10-22T16:21:39;13.10;99.90
21403;DHT22;10862;51.886;17.078;2022-10-22T16:24:05;13.10;99.90
21403;DHT22;10862;51.886;17.078;2022-10-22T16:26:31;13.10;99.90
21403;DHT22;10862;51.886;17.078;2022-10-22T16:28:56;13.10;99.90
21403;DHT22;10862;51.886;17.078;2022-10-22T16:31:22;13.20;99.90
21403;DHT22;10862;51.886;17.078;2022-10-22T16:33:47;13.20;99.90
21403;DHT22;10862;51.886;17.078;2022-10-22T16:36:14;13.20;99.90
21403;DHT22;10862;51.886;17.078;2022-10-22T16:38:42;13.20;99.90
21403;DHT22;10862;51.886;17.078;2022-10-22T16:43:37;13.30;99.90
21403;DHT22;10862;51.886;17.078;2022-10-22T16:46:03;13.30;99.90
21403;DHT22;10862;51.886;17.078;2022-10-22T16:48:30;13.30;99.90
21403;DHT22;10862;51.886;17.078;2022-10-22T16:50:57;13.40;99.90
21403;DHT22;10862;51.886;17.078;2022-10-22T16:53:22;13.40;99.90
21403;DHT22;10862;51.886;17.078;2022-10-22T16:55:48;13.40;99.90
21403;DHT22;10862;51.886;17.078;2022-10-22T16:58:13;13.40;99.90
21403;DHT22;10862;51.886;17.078;2022-10-22T17:00:39;13.50;99.90